sensor_id;sensor_type;location;lat;lon;timestamp;temperature;humidity
56322;DHT22;42227;6.376;-10.782;2022-08-19T00:00:24;26.80;99.90
56322;DHT22;42227;6.376;-10.782;2022-08-19T00:02:52;26.50;99.90
56322;DHT22;42227;6.376;-10.782;2022-08-19T00:05:21;26.20;99.90
56322;DHT22;42227;6.376;-10.782;2022-08-19T00:07:50;26.00;99.90
56322;DHT22;42227;6.376;-10.782;2022-08-19T00:10:19;25.90;99.90
56322;DHT22;42227;6.376;-10.782;2022-08-19T00:12:48;25.90;99.90
56322;DHT22;42227;6.376;-10.782;2022-08-19T00:15:19;25.90;99.90
56322;DHT22;42227;6.376;-10.782;2022-08-19T00:17:48;25.90;99.90
56322;DHT22;42227;6.376;-10.782;2022-08-19T00:20:19;25.90;99.90
56322;DHT22;42227;6.376;-10.782;2022-08-19T00:22:48;25.80;99.90
56322;DHT22;42227;6.376;-10.782;2022-08-19T00:25:17;25.70;99.90
56322;DHT22;42227;6.376;-10.782;2022-08-19T00:27:57;25.70;99.90
56322;DHT22;42227;6.376;-10.782;2022-08-19T00:30:26;26.20;99.90
56322;DHT22;42227;6.376;-10.782;2022-08-19T00:32:54;26.50;99.90
56322;DHT22;42227;6.376;-10.782;2022-08-19T00:35:23;26.70;99.90
56322;DHT22;42227;6.376;-10.782;2022-08-19T00:37:51;26.80;99.90
56322;DHT22;42227;6.376;-10.782;2022-08-19T00:40:21;26.40;99.90
56322;DHT22;42227;6.376;-10.782;2022-08-19T00:42:49;26.10;99.90
56322;DHT22;42227;6.376;-10.782;2022-08-19T00:45:20;26.00;99.90
56322;DHT22;42227;6.376;-10.782;2022-08-19T00:47:49;25.90;99.90
56322;DHT22;42227;6.376;-10.782;2022-08-19T00:50:20;25.80;99.90
56322;DHT22;42227;6.376;-10.782;2022-08-19T00:52:50;25.80;99.90
56322;DHT22;42227;6.376;-10.782;2022-08-19T00:55:22;25.80;99.90
56322;DHT22;42227;6.376;-10.782;2022-08-19T00:58:02;25.80;99.90
56322;DHT22;42227;6.376;-10.782;2022-08-19T01:00:32;25.70;99.90
56322;DHT22;42227;6.376;-10.782;2022-08-19T01:03:00;25.70;99.90
56322;DHT22;42227;6.376;-10.782;2022-08-19T01:05:29;25.90;99.90
56322;DHT22;42227;6.376;-10.782;2022-08-19T01:07:59;26.30;99.90
56322;DHT22;42227;6.376;-10.782;2022-08-19T01:10:31;26.50;99.90
56322;DHT22;42227;6.376;-10.782;2022-08-19T01:13:04;26.60;99.90
56322;DHT22;42227;6.376;-10.782;2022-08-19T01:15:38;26.60;99.90
56322;DHT22;42227;6.376;-10.782;2022-08-19T01:18:11;26.60;99.90
56322;DHT22;42227;6.376;-10.782;2022-08-19T01:20:41;26.20;99.90
56322;DHT22;42227;6.376;-10.782;2022-08-19T01:23:10;26.00;99.90
56322;DHT22;42227;6.376;-10.782;2022-08-19T01:25:48;25.90;99.90
56322;DHT22;42227;6.376;-10.782;2022-08-19T01:28:26;25.80;99.90
56322;DHT22;42227;6.376;-10.782;2022-08-19T01:31:12;25.80;99.90
56322;DHT22;42227;6.376;-10.782;2022-08-19T01:33:56;25.70;99.90
56322;DHT22;42227;6.376;-10.782;2022-08-19T01:36:31;25.70;99.90
56322;DHT22;42227;6.376;-10.782;2022-08-19T01:39:04;25.70;99.90
56322;DHT22;42227;6.376;-10.782;2022-08-19T01:41:33;25.70;99.90
56322;DHT22;42227;6.376;-10.782;2022-08-19T01:44:03;25.70;99.90
56322;DHT22;42227;6.376;-10.782;2022-08-19T01:46:47;25.70;99.90
56322;DHT22;42227;6.376;-10.782;2022-08-19T01:49:19;26.20;99.90
56322;DHT22;42227;6.376;-10.782;2022-08-19T01:51:48;26.40;99.90
56322;DHT22;42227;6.376;-10.782;2022-08-19T01:54:18;26.50;99.90
56322;DHT22;42227;6.376;-10.782;2022-08-19T01:57:10;26.30;99.90
56322;DHT22;42227;6.376;-10.782;2022-08-19T01:59:41;26.00;99.90
56322;DHT22;42227;6.376;-10.782;2022-08-19T02:02:10;25.90;99.90
56322;DHT22;42227;6.376;-10.782;2022-08-19T02:04:38;25.80;99.90
56322;DHT22;42227;6.376;-10.782;2022-08-19T02:07:07;25.70;99.90
56322;DHT22;42227;6.376;-10.782;2022-08-19T02:09:36;25.70;99.90
56322;DHT22;42227;6.376;-10.782;2022-08-19T02:12:06;25.70;99.90
56322;DHT22;42227;6.376;-10.782;2022-08-19T02:14:35;25.70;99.90
56322;DHT22;42227;6.376;-10.782;2022-08-19T02:17:04;25.70;99.90
56322;DHT22;42227;6.376;-10.782;2022-08-19T02:19:32;25.60;99.90
56322;DHT22;42227;6.376;-10.782;2022-08-19T02:22:01;25.60;99.90
56322;DHT22;42227;6.376;-10.782;2022-08-19T02:24:29;26.00;99.90
56322;DHT22;42227;6.376;-10.782;2022-08-19T02:26:57;26.40;99.90
56322;DHT22;42227;6.376;-10.782;2022-08-19T02:29:26;26.50;99.90
56322;DHT22;42227;6.376;-10.782;2022-08-19T02:31:55;26.60;99.90
56322;DHT22;42227;6.376;-10.782;2022-08-19T02:34:23;26.40;99.90
56322;DHT22;42227;6.376;-10.782;2022-08-19T02:36:52;26.10;99.90
56322;DHT22;42227;6.376;-10.782;2022-08-19T02:39:20;25.90;99.90
56322;DHT22;42227;6.376;-10.782;2022-08-19T02:41:48;25.80;99.90
56322;DHT22;42227;6.376;-10.782;2022-08-19T02:44:17;25.70;99.90
56322;DHT22;42227;6.376;-10.782;2022-08-19T02:46:57;25.70;99.90
56322;DHT22;42227;6.376;-10.782;2022-08-19T02:49:26;25.70;99.90
56322;DHT22;42227;6.376;-10.782;2022-08-19T02:51:54;25.70;99.90
56322;DHT22;42227;6.376;-10.782;2022-08-19T02:54:22;25.70;99.90
56322;DHT22;42227;6.376;-10.782;2022-08-19T02:56:50;25.60;99.90
56322;DHT22;42227;6.376;-10.782;2022-08-19T02:59:19;25.60;99.90
56322;DHT22;42227;6.376;-10.782;2022-08-19T03:01:49;25.60;99.90
56322;DHT22;42227;6.376;-10.782;2022-08-19T03:04:18;25.90;99.90
56322;DHT22;42227;6.376;-10.782;2022-08-19T03:06:47;26.20;99.90
56322;DHT22;42227;6.376;-10.782;2022-08-19T03:09:16;26.30;99.90
56322;DHT22;42227;6.376;-10.782;2022-08-19T03:11:45;26.40;99.90
56322;DHT22;42227;6.376;-10.782;2022-08-19T03:14:15;26.40;99.90
56322;DHT22;42227;6.376;-10.782;2022-08-19T03:16:51;26.00;99.90
56322;DHT22;42227;6.376;-10.782;2022-08-19T03:19:20;25.80;99.90
56322;DHT22;42227;6.376;-10.782;2022-08-19T03:21:49;25.70;99.90
56322;DHT22;42227;6.376;-10.782;2022-08-19T03:24:18;25.70;99.90
56322;DHT22;42227;6.376;-10.782;2022-08-19T03:26:51;25.70;99.90
56322;DHT22;42227;6.376;-10.782;2022-08-19T03:29:19;25.60;99.90
56322;DHT22;42227;6.376;-10.782;2022-08-19T03:32:04;25.60;99.90
56322;DHT22;42227;6.376;-10.782;2022-08-19T03:34:34;25.60;99.90
56322;DHT22;42227;6.376;-10.782;2022-08-19T03:37:08;25.50;99.90
56322;DHT22;42227;6.376;-10.782;2022-08-19T03:39:38;25.50;99.90
56322;DHT22;42227;6.376;-10.782;2022-08-19T03:42:08;25.50;99.90
56322;DHT22;42227;6.376;-10.782;2022-08-19T03:44:56;25.80;99.90
56322;DHT22;42227;6.376;-10.782;2022-08-19T03:47:24;26.20;99.90
56322;DHT22;42227;6.376;-10.782;2022-08-19T03:49:52;26.20;99.90
56322;DHT22;42227;6.376;-10.782;2022-08-19T03:52:21;26.30;99.90
56322;DHT22;42227;6.376;-10.782;2022-08-19T03:54:49;25.90;99.90
56322;DHT22;42227;6.376;-10.782;2022-08-19T03:57:17;25.70;99.90
56322;DHT22;42227;6.376;-10.782;2022-08-19T03:59:46;25.60;99.90
56322;DHT22;42227;6.376;-10.782;2022-08-19T04:02:14;25.50;99.90
56322;DHT22;42227;6.376;-10.782;2022-08-19T04:04:43;25.50;99.90
56322;DHT22;42227;6.376;-10.782;2022-08-19T04:07:13;25.50;99.90
56322;DHT22;42227;6.376;-10.782;2022-08-19T04:09:42;25.50;99.90
56322;DHT22;42227;6.376;-10.782;2022-08-19T04:12:11;25.40;99.90
56322;DHT22;42227;6.376;-10.782;2022-08-19T04:14:39;25.30;99.90
56322;DHT22;42227;6.376;-10.782;2022-08-19T04:17:08;25.30;99.90
56322;DHT22;42227;6.376;-10.782;2022-08-19T04:19:36;25.30;99.90
56322;DHT22;42227;6.376;-10.782;2022-08-19T04:22:05;25.30;99.90
56322;DHT22;42227;6.376;-10.782;2022-08-19T04:24:34;25.40;99.90
56322;DHT22;42227;6.376;-10.782;2022-08-19T04:27:03;25.70;99.90
56322;DHT22;42227;6.376;-10.782;2022-08-19T04:29:32;25.60;99.90
56322;DHT22;42227;6.376;-10.782;2022-08-19T04:32:02;25.50;99.90
56322;DHT22;42227;6.376;-10.782;2022-08-19T04:34:36;25.30;99.90
56322;DHT22;42227;6.376;-10.782;2022-08-19T04:37:26;25.20;99.90
56322;DHT22;42227;6.376;-10.782;2022-08-19T04:40:04;25.10;99.90
56322;DHT22;42227;6.376;-10.782;2022-08-19T04:42:33;25.20;99.90
56322;DHT22;42227;6.376;-10.782;2022-08-19T04:45:02;25.10;99.90
56322;DHT22;42227;6.376;-10.782;2022-08-19T04:47:40;25.00;99.90
56322;DHT22;42227;6.376;-10.782;2022-08-19T04:50:14;24.90;99.90
56322;DHT22;42227;6.376;-10.782;2022-08-19T04:52:45;24.90;99.90
56322;DHT22;42227;6.376;-10.782;2022-08-19T04:55:13;25.00;99.90
56322;DHT22;42227;6.376;-10.782;2022-08-19T04:57:42;24.90;99.90
56322;DHT22;42227;6.376;-10.782;2022-08-19T05:00:10;25.00;99.90
56322;DHT22;42227;6.376;-10.782;2022-08-19T05:02:39;25.00;99.90
56322;DHT22;42227;6.376;-10.782;2022-08-19T05:05:08;25.10;99.90
56322;DHT22;42227;6.376;-10.782;2022-08-19T05:07:36;25.30;99.90
56322;DHT22;42227;6.376;-10.782;2022-08-19T05:10:05;25.40;99.90
56322;DHT22;42227;6.376;-10.782;2022-08-19T05:12:34;25.10;99.90
56322;DHT22;42227;6.376;-10.782;2022-08-19T05:15:03;25.00;99.90
56322;DHT22;42227;6.376;-10.782;2022-08-19T05:17:32;25.00;99.90
56322;DHT22;42227;6.376;-10.782;2022-08-19T05:20:06;24.90;99.90
56322;DHT22;42227;6.376;-10.782;2022-08-19T05:22:35;25.00;99.90
56322;DHT22;42227;6.376;-10.782;2022-08-19T05:25:10;24.90;99.90
56322;DHT22;42227;6.376;-10.782;2022-08-19T05:27:42;24.80;99.90
56322;DHT22;42227;6.376;-10.782;2022-08-19T05:30:11;24.90;99.90
56322;DHT22;42227;6.376;-10.782;2022-08-19T05:32:40;24.80;99.90
56322;DHT22;42227;6.376;-10.782;2022-08-19T05:35:09;24.70;99.90
56322;DHT22;42227;6.376;-10.782;2022-08-19T05:37:37;24.80;99.90
56322;DHT22;42227;6.376;-10.782;2022-08-19T05:40:06;25.00;99.90
56322;DHT22;42227;6.376;-10.782;2022-08-19T05:42:34;25.10;99.90
56322;DHT22;42227;6.376;-10.782;2022-08-19T05:45:03;25.10;99.90
56322;DHT22;42227;6.376;-10.782;2022-08-19T05:47:32;25.00;99.90
56322;DHT22;42227;6.376;-10.782;2022-08-19T05:50:00;25.00;99.90
56322;DHT22;42227;6.376;-10.782;2022-08-19T05:52:28;24.80;99.90
56322;DHT22;42227;6.376;-10.782;2022-08-19T05:54:58;24.70;99.90
56322;DHT22;42227;6.376;-10.782;2022-08-19T05:57:26;24.50;99.90
56322;DHT22;42227;6.376;-10.782;2022-08-19T05:59:54;24.50;99.90
56322;DHT22;42227;6.376;-10.782;2022-08-19T06:02:31;24.50;99.90
56322;DHT22;42227;6.376;-10.782;2022-08-19T06:04:59;24.60;99.90
56322;DHT22;42227;6.376;-10.782;2022-08-19T06:07:28;24.60;99.90
56322;DHT22;42227;6.376;-10.782;2022-08-19T06:09:56;24.60;99.90
56322;DHT22;42227;6.376;-10.782;2022-08-19T06:12:29;24.70;99.90
56322;DHT22;42227;6.376;-10.782;2022-08-19T06:14:58;24.70;99.90
56322;DHT22;42227;6.376;-10.782;2022-08-19T06:17:31;24.80;99.90
56322;DHT22;42227;6.376;-10.782;2022-08-19T06:19:59;24.80;99.90
56322;DHT22;42227;6.376;-10.782;2022-08-19T06:22:28;24.80;99.90
56322;DHT22;42227;6.376;-10.782;2022-08-19T06:24:56;24.80;99.90
56322;DHT22;42227;6.376;-10.782;2022-08-19T06:27:24;24.80;99.90
56322;DHT22;42227;6.376;-10.782;2022-08-19T06:29:53;24.80;99.90
56322;DHT22;42227;6.376;-10.782;2022-08-19T06:32:21;24.80;99.90
56322;DHT22;42227;6.376;-10.782;2022-08-19T06:34:49;24.80;99.90
56322;DHT22;42227;6.376;-10.782;2022-08-19T06:37:17;24.80;99.90
56322;DHT22;42227;6.376;-10.782;2022-08-19T06:39:46;24.80;99.90
56322;DHT22;42227;6.376;-10.782;2022-08-19T06:42:14;24.70;99.90
56322;DHT22;42227;6.376;-10.782;2022-08-19T06:44:46;24.80;99.90
56322;DHT22;42227;6.376;-10.782;2022-08-19T06:47:20;24.70;99.90
56322;DHT22;42227;6.376;-10.782;2022-08-19T06:49:59;24.80;99.90
56322;DHT22;42227;6.376;-10.782;2022-08-19T06:52:34;24.80;99.90
56322;DHT22;42227;6.376;-10.782;2022-08-19T06:55:03;25.00;99.90
56322;DHT22;42227;6.376;-10.782;2022-08-19T06:57:33;25.30;99.90
56322;DHT22;42227;6.376;-10.782;2022-08-19T07:00:04;25.70;99.90
56322;DHT22;42227;6.376;-10.782;2022-08-19T07:02:36;25.90;99.90
56322;DHT22;42227;6.376;-10.782;2022-08-19T07:05:05;25.70;99.90
56322;DHT22;42227;6.376;-10.782;2022-08-19T07:07:33;25.50;99.90
56322;DHT22;42227;6.376;-10.782;2022-08-19T07:10:04;25.50;99.90
56322;DHT22;42227;6.376;-10.782;2022-08-19T07:12:34;25.60;99.90
56322;DHT22;42227;6.376;-10.782;2022-08-19T07:15:05;25.70;99.90
56322;DHT22;42227;6.376;-10.782;2022-08-19T07:17:34;25.80;99.90
56322;DHT22;42227;6.376;-10.782;2022-08-19T07:20:02;25.90;99.90
56322;DHT22;42227;6.376;-10.782;2022-08-19T07:22:37;26.10;99.90
56322;DHT22;42227;6.376;-10.782;2022-08-19T07:25:07;26.30;99.90
56322;DHT22;42227;6.376;-10.782;2022-08-19T07:27:36;26.40;99.90
56322;DHT22;42227;6.376;-10.782;2022-08-19T07:30:12;26.80;99.90
56322;DHT22;42227;6.376;-10.782;2022-08-19T07:32:41;27.30;99.90
56322;DHT22;42227;6.376;-10.782;2022-08-19T07:35:09;27.20;99.90
56322;DHT22;42227;6.376;-10.782;2022-08-19T07:37:38;27.10;99.90
56322;DHT22;42227;6.376;-10.782;2022-08-19T07:40:07;26.70;99.90
56322;DHT22;42227;6.376;-10.782;2022-08-19T07:42:36;26.40;99.90
56322;DHT22;42227;6.376;-10.782;2022-08-19T07:45:06;26.20;99.90
56322;DHT22;42227;6.376;-10.782;2022-08-19T07:47:34;26.10;99.90
56322;DHT22;42227;6.376;-10.782;2022-08-19T07:50:17;26.10;99.90
56322;DHT22;42227;6.376;-10.782;2022-08-19T07:52:45;26.00;99.90
56322;DHT22;42227;6.376;-10.782;2022-08-19T07:55:19;26.00;99.90
56322;DHT22;42227;6.376;-10.782;2022-08-19T07:58:07;26.00;99.90
56322;DHT22;42227;6.376;-10.782;2022-08-19T08:00:36;25.90;99.90
56322;DHT22;42227;6.376;-10.782;2022-08-19T08:03:05;25.80;99.90
56322;DHT22;42227;6.376;-10.782;2022-08-19T08:05:33;25.80;99.90
56322;DHT22;42227;6.376;-10.782;2022-08-19T08:08:02;25.70;99.90
56322;DHT22;42227;6.376;-10.782;2022-08-19T08:10:31;25.70;99.90
56322;DHT22;42227;6.376;-10.782;2022-08-19T08:12:59;26.00;99.90
56322;DHT22;42227;6.376;-10.782;2022-08-19T08:15:38;26.50;99.90
56322;DHT22;42227;6.376;-10.782;2022-08-19T08:18:10;26.60;99.90
56322;DHT22;42227;6.376;-10.782;2022-08-19T08:20:41;26.70;99.90
56322;DHT22;42227;6.376;-10.782;2022-08-19T08:23:09;26.40;99.90
56322;DHT22;42227;6.376;-10.782;2022-08-19T08:25:37;26.10;99.90
56322;DHT22;42227;6.376;-10.782;2022-08-19T08:28:06;25.90;99.90
56322;DHT22;42227;6.376;-10.782;2022-08-19T08:30:37;25.90;99.90
56322;DHT22;42227;6.376;-10.782;2022-08-19T08:33:11;26.00;99.90
56322;DHT22;42227;6.376;-10.782;2022-08-19T08:35:41;26.00;99.90
56322;DHT22;42227;6.376;-10.782;2022-08-19T08:38:09;25.90;99.90
56322;DHT22;42227;6.376;-10.782;2022-08-19T08:40:52;25.90;99.90
56322;DHT22;42227;6.376;-10.782;2022-08-19T08:43:34;25.90;99.90
56322;DHT22;42227;6.376;-10.782;2022-08-19T08:46:09;25.90;99.90
56322;DHT22;42227;6.376;-10.782;2022-08-19T08:48:46;26.00;99.90
56322;DHT22;42227;6.376;-10.782;2022-08-19T08:51:27;26.40;99.90
56322;DHT22;42227;6.376;-10.782;2022-08-19T08:54:04;26.70;99.90
56322;DHT22;42227;6.376;-10.782;2022-08-19T08:56:33;26.80;99.90
56322;DHT22;42227;6.376;-10.782;2022-08-19T08:59:19;27.00;99.90
56322;DHT22;42227;6.376;-10.782;2022-08-19T09:01:48;26.60;99.90
56322;DHT22;42227;6.376;-10.782;2022-08-19T09:04:17;26.50;99.90
56322;DHT22;42227;6.376;-10.782;2022-08-19T09:10:22;26.30;99.90
56322;DHT22;42227;6.376;-10.782;2022-08-19T09:16:05;26.10;99.90
56322;DHT22;42227;6.376;-10.782;2022-08-19T09:18:47;26.10;99.90
56322;DHT22;42227;6.376;-10.782;2022-08-19T09:21:16;26.10;99.90
56322;DHT22;42227;6.376;-10.782;2022-08-19T09:23:48;26.20;99.90
56322;DHT22;42227;6.376;-10.782;2022-08-19T09:26:21;26.20;99.90
56322;DHT22;42227;6.376;-10.782;2022-08-19T09:28:56;26.20;99.90
56322;DHT22;42227;6.376;-10.782;2022-08-19T09:31:26;26.30;99.90
56322;DHT22;42227;6.376;-10.782;2022-08-19T09:33:55;26.60;99.90
56322;DHT22;42227;6.376;-10.782;2022-08-19T09:36:26;26.70;99.90
56322;DHT22;42227;6.376;-10.782;2022-08-19T09:39:02;26.80;99.90
56322;DHT22;42227;6.376;-10.782;2022-08-19T09:41:42;26.70;99.90
56322;DHT22;42227;6.376;-10.782;2022-08-19T09:44:15;26.40;99.90
56322;DHT22;42227;6.376;-10.782;2022-08-19T09:46:44;26.30;99.90
56322;DHT22;42227;6.376;-10.782;2022-08-19T09:49:13;26.20;99.90
56322;DHT22;42227;6.376;-10.782;2022-08-19T09:51:41;26.20;99.90
56322;DHT22;42227;6.376;-10.782;2022-08-19T09:54:18;26.20;99.90
56322;DHT22;42227;6.376;-10.782;2022-08-19T09:56:53;26.30;99.90
56322;DHT22;42227;6.376;-10.782;2022-08-19T09:59:22;26.40;99.90
56322;DHT22;42227;6.376;-10.782;2022-08-19T10:01:50;26.40;99.90
56322;DHT22;42227;6.376;-10.782;2022-08-19T10:04:20;26.30;99.90
56322;DHT22;42227;6.376;-10.782;2022-08-19T10:06:50;26.30;99.90
56322;DHT22;42227;6.376;-10.782;2022-08-19T10:09:20;26.20;99.90
56322;DHT22;42227;6.376;-10.782;2022-08-19T10:12:02;26.20;99.90
56322;DHT22;42227;6.376;-10.782;2022-08-19T10:14:32;26.50;99.90
56322;DHT22;42227;6.376;-10.782;2022-08-19T10:17:02;26.50;99.90
56322;DHT22;42227;6.376;-10.782;2022-08-19T10:19:46;26.50;99.90
56322;DHT22;42227;6.376;-10.782;2022-08-19T10:22:22;26.40;99.90
56322;DHT22;42227;6.376;-10.782;2022-08-19T10:24:53;26.20;99.90
56322;DHT22;42227;6.376;-10.782;2022-08-19T10:27:22;26.10;99.90
56322;DHT22;42227;6.376;-10.782;2022-08-19T10:29:53;26.10;99.90
56322;DHT22;42227;6.376;-10.782;2022-08-19T10:32:21;26.00;99.90
56322;DHT22;42227;6.376;-10.782;2022-08-19T10:35:01;26.00;99.90
56322;DHT22;42227;6.376;-10.782;2022-08-19T10:37:32;26.10;99.90
56322;DHT22;42227;6.376;-10.782;2022-08-19T10:40:03;26.10;99.90
56322;DHT22;42227;6.376;-10.782;2022-08-19T10:42:32;26.20;99.90
56322;DHT22;42227;6.376;-10.782;2022-08-19T10:45:01;26.10;99.90
56322;DHT22;42227;6.376;-10.782;2022-08-19T10:47:32;26.10;99.90
56322;DHT22;42227;6.376;-10.782;2022-08-19T10:50:00;25.90;99.90
56322;DHT22;42227;6.376;-10.782;2022-08-19T10:52:29;26.00;99.90
56322;DHT22;42227;6.376;-10.782;2022-08-19T10:55:03;25.90;99.90
56322;DHT22;42227;6.376;-10.782;2022-08-19T10:57:35;25.90;99.90
56322;DHT22;42227;6.376;-10.782;2022-08-19T11:00:25;25.80;99.90
56322;DHT22;42227;6.376;-10.782;2022-08-19T11:02:53;25.50;99.90
56322;DHT22;42227;6.376;-10.782;2022-08-19T11:05:22;25.50;99.90
56322;DHT22;42227;6.376;-10.782;2022-08-19T11:07:51;25.50;99.90
56322;DHT22;42227;6.376;-10.782;2022-08-19T11:10:20;25.70;99.90
56322;DHT22;42227;6.376;-10.782;2022-08-19T11:12:49;25.70;99.90
56322;DHT22;42227;6.376;-10.782;2022-08-19T11:15:17;25.60;99.90
56322;DHT22;42227;6.376;-10.782;2022-08-19T11:17:45;25.60;99.90
56322;DHT22;42227;6.376;-10.782;2022-08-19T11:20:15;25.60;99.90
56322;DHT22;42227;6.376;-10.782;2022-08-19T11:22:43;25.70;99.90
56322;DHT22;42227;6.376;-10.782;2022-08-19T11:25:14;25.90;99.90
56322;DHT22;42227;6.376;-10.782;2022-08-19T11:27:44;25.90;99.90
56322;DHT22;42227;6.376;-10.782;2022-08-19T11:30:13;26.00;99.90
56322;DHT22;42227;6.376;-10.782;2022-08-19T11:32:43;26.30;99.90
56322;DHT22;42227;6.376;-10.782;2022-08-19T11:35:16;26.70;99.90
56322;DHT22;42227;6.376;-10.782;2022-08-19T11:37:45;26.90;99.90
56322;DHT22;42227;6.376;-10.782;2022-08-19T11:40:13;27.20;99.90
56322;DHT22;42227;6.376;-10.782;2022-08-19T11:42:42;27.10;99.90
56322;DHT22;42227;6.376;-10.782;2022-08-19T11:45:16;27.00;99.90
56322;DHT22;42227;6.376;-10.782;2022-08-19T11:47:45;26.90;99.90
56322;DHT22;42227;6.376;-10.782;2022-08-19T11:50:15;26.80;99.90
56322;DHT22;42227;6.376;-10.782;2022-08-19T11:52:44;26.70;99.90
56322;DHT22;42227;6.376;-10.782;2022-08-19T11:55:14;26.80;99.90
56322;DHT22;42227;6.376;-10.782;2022-08-19T11:57:42;26.90;99.90
56322;DHT22;42227;6.376;-10.782;2022-08-19T12:00:11;26.90;99.90
56322;DHT22;42227;6.376;-10.782;2022-08-19T12:02:41;26.80;99.90
56322;DHT22;42227;6.376;-10.782;2022-08-19T12:05:10;26.70;99.90
56322;DHT22;42227;6.376;-10.782;2022-08-19T12:07:40;26.70;99.90
56322;DHT22;42227;6.376;-10.782;2022-08-19T12:10:09;26.60;99.90
56322;DHT22;42227;6.376;-10.782;2022-08-19T12:12:38;26.60;99.90
56322;DHT22;42227;6.376;-10.782;2022-08-19T12:15:08;26.60;99.90
56322;DHT22;42227;6.376;-10.782;2022-08-19T12:17:37;26.90;99.90
56322;DHT22;42227;6.376;-10.782;2022-08-19T12:20:06;27.10;99.90
56322;DHT22;42227;6.376;-10.782;2022-08-19T12:22:36;27.30;99.90
56322;DHT22;42227;6.376;-10.782;2022-08-19T12:25:11;27.40;99.90
56322;DHT22;42227;6.376;-10.782;2022-08-19T12:27:40;27.30;99.90
56322;DHT22;42227;6.376;-10.782;2022-08-19T12:30:16;27.20;99.90
56322;DHT22;42227;6.376;-10.782;2022-08-19T12:32:46;27.10;99.90
56322;DHT22;42227;6.376;-10.782;2022-08-19T12:35:15;27.00;99.90
56322;DHT22;42227;6.376;-10.782;2022-08-19T12:37:43;26.90;99.90
56322;DHT22;42227;6.376;-10.782;2022-08-19T12:40:23;27.00;99.90
56322;DHT22;42227;6.376;-10.782;2022-08-19T12:42:53;26.90;99.90
56322;DHT22;42227;6.376;-10.782;2022-08-19T12:45:22;26.60;99.90
56322;DHT22;42227;6.376;-10.782;2022-08-19T12:47:50;26.60;99.90
56322;DHT22;42227;6.376;-10.782;2022-08-19T12:50:21;26.60;99.90
56322;DHT22;42227;6.376;-10.782;2022-08-19T12:52:50;26.80;99.90
56322;DHT22;42227;6.376;-10.782;2022-08-19T12:55:19;27.00;99.90
56322;DHT22;42227;6.376;-10.782;2022-08-19T12:57:47;27.10;99.90
56322;DHT22;42227;6.376;-10.782;2022-08-19T13:00:19;27.20;99.90
56322;DHT22;42227;6.376;-10.782;2022-08-19T13:02:49;27.20;99.90
56322;DHT22;42227;6.376;-10.782;2022-08-19T13:05:21;27.10;99.90
56322;DHT22;42227;6.376;-10.782;2022-08-19T13:07:52;27.00;99.90
56322;DHT22;42227;6.376;-10.782;2022-08-19T13:10:24;26.90;99.90
56322;DHT22;42227;6.376;-10.782;2022-08-19T13:12:59;26.70;99.90
56322;DHT22;42227;6.376;-10.782;2022-08-19T13:15:32;26.80;99.90
56322;DHT22;42227;6.376;-10.782;2022-08-19T13:18:02;26.80;99.90
56322;DHT22;42227;6.376;-10.782;2022-08-19T13:20:30;26.90;99.90
56322;DHT22;42227;6.376;-10.782;2022-08-19T13:22:59;27.20;99.90
56322;DHT22;42227;6.376;-10.782;2022-08-19T13:25:28;27.30;99.90
56322;DHT22;42227;6.376;-10.782;2022-08-19T13:27:56;27.40;99.90
56322;DHT22;42227;6.376;-10.782;2022-08-19T13:30:25;27.60;99.90
56322;DHT22;42227;6.376;-10.782;2022-08-19T13:32:53;27.60;99.90
56322;DHT22;42227;6.376;-10.782;2022-08-19T13:35:22;27.70;99.90
56322;DHT22;42227;6.376;-10.782;2022-08-19T13:37:50;27.90;99.90
56322;DHT22;42227;6.376;-10.782;2022-08-19T13:40:24;27.90;99.90
56322;DHT22;42227;6.376;-10.782;2022-08-19T13:42:55;27.90;99.90
56322;DHT22;42227;6.376;-10.782;2022-08-19T13:45:27;27.70;99.90
56322;DHT22;42227;6.376;-10.782;2022-08-19T13:47:56;27.50;99.90
56322;DHT22;42227;6.376;-10.782;2022-08-19T13:50:28;27.40;99.90
56322;DHT22;42227;6.376;-10.782;2022-08-19T13:52:57;27.50;99.90
56322;DHT22;42227;6.376;-10.782;2022-08-19T13:55:26;27.10;99.90
56322;DHT22;42227;6.376;-10.782;2022-08-19T13:57:57;27.10;99.90
56322;DHT22;42227;6.376;-10.782;2022-08-19T14:00:28;27.10;99.90
56322;DHT22;42227;6.376;-10.782;2022-08-19T14:02:57;27.10;99.90
56322;DHT22;42227;6.376;-10.782;2022-08-19T14:05:27;27.20;99.90
56322;DHT22;42227;6.376;-10.782;2022-08-19T14:07:57;27.30;99.90
56322;DHT22;42227;6.376;-10.782;2022-08-19T14:10:28;27.30;99.90
56322;DHT22;42227;6.376;-10.782;2022-08-19T14:12:58;27.20;99.90
56322;DHT22;42227;6.376;-10.782;2022-08-19T14:15:29;27.10;99.90
56322;DHT22;42227;6.376;-10.782;2022-08-19T14:18:01;27.10;99.90
56322;DHT22;42227;6.376;-10.782;2022-08-19T14:20:29;27.20;99.90
56322;DHT22;42227;6.376;-10.782;2022-08-19T14:22:58;27.30;99.90
56322;DHT22;42227;6.376;-10.782;2022-08-19T14:25:28;27.30;99.90
56322;DHT22;42227;6.376;-10.782;2022-08-19T14:27:58;27.60;99.90
56322;DHT22;42227;6.376;-10.782;2022-08-19T14:30:32;27.80;99.90
56322;DHT22;42227;6.376;-10.782;2022-08-19T14:33:01;27.90;99.90
56322;DHT22;42227;6.376;-10.782;2022-08-19T14:35:32;27.70;99.90
56322;DHT22;42227;6.376;-10.782;2022-08-19T14:38:05;27.70;99.90
56322;DHT22;42227;6.376;-10.782;2022-08-19T14:40:34;27.70;99.90
56322;DHT22;42227;6.376;-10.782;2022-08-19T14:43:04;27.70;99.90
56322;DHT22;42227;6.376;-10.782;2022-08-19T14:45:37;27.40;99.90
56322;DHT22;42227;6.376;-10.782;2022-08-19T14:48:08;27.40;99.90
56322;DHT22;42227;6.376;-10.782;2022-08-19T14:50:46;27.50;99.90
56322;DHT22;42227;6.376;-10.782;2022-08-19T14:53:16;27.20;99.90
56322;DHT22;42227;6.376;-10.782;2022-08-19T14:55:45;27.10;99.90
56322;DHT22;42227;6.376;-10.782;2022-08-19T14:58:14;27.00;99.90
56322;DHT22;42227;6.376;-10.782;2022-08-19T15:00:58;27.10;99.90
56322;DHT22;42227;6.376;-10.782;2022-08-19T15:03:27;27.20;99.90
56322;DHT22;42227;6.376;-10.782;2022-08-19T15:05:56;27.30;99.90
56322;DHT22;42227;6.376;-10.782;2022-08-19T15:08:26;27.20;99.90
56322;DHT22;42227;6.376;-10.782;2022-08-19T15:10:58;27.00;99.90
56322;DHT22;42227;6.376;-10.782;2022-08-19T15:13:27;27.00;99.90
56322;DHT22;42227;6.376;-10.782;2022-08-19T15:15:56;26.90;99.90
56322;DHT22;42227;6.376;-10.782;2022-08-19T15:18:25;26.80;99.90
56322;DHT22;42227;6.376;-10.782;2022-08-19T15:20:54;26.80;99.90
56322;DHT22;42227;6.376;-10.782;2022-08-19T15:23:22;26.70;99.90
56322;DHT22;42227;6.376;-10.782;2022-08-19T15:25:51;26.80;99.90
56322;DHT22;42227;6.376;-10.782;2022-08-19T15:28:19;26.90;99.90
56322;DHT22;42227;6.376;-10.782;2022-08-19T15:30:47;26.90;99.90
56322;DHT22;42227;6.376;-10.782;2022-08-19T15:33:16;26.70;99.90
56322;DHT22;42227;6.376;-10.782;2022-08-19T15:35:45;26.90;99.90
56322;DHT22;42227;6.376;-10.782;2022-08-19T15:38:14;27.10;99.90
56322;DHT22;42227;6.376;-10.782;2022-08-19T15:40:42;27.20;99.90
56322;DHT22;42227;6.376;-10.782;2022-08-19T15:43:10;27.30;99.90